Terminal Aerodrome Forecast
Issued by NWS

Home | Current Version | Previous Version | Text Only | Print | Product List | Glossary On
Versions: 1 2 3 4 5 6 7 8 9 10 11 12 13 14 15 16 17 18
000
FTUS42 KFFC 200759 AAA
TAFPDK
TAF AMD
KPDK 200759Z 2008/2106 02005KT 5SM -RA BR OVC060
     FM201000 03004KT 6SM -RA BR OVC025
     FM201400 05005KT P6SM VCSH OVC028
     FM201900 08005KT P6SM BKN035
     FM202200 35004KT P6SM SCT050=

USA.gov is the U.S. government's official web portal to all federal, state and local government web resources and services.